Time;durP1;ratioP1;P1;durP2;ratioP2;P2;SDS_P1;SDS_P2;PMS_P1;PMS_P2;Temp;Humidity;BMP_temperature;BMP_pressure;BME280_temperature;BME280_humidity;BME280_pressure;Samples;Min_cycle;Max_cycle;Signal;HPM_P1;HPM_P2
2022/08/05 00:01:13;;;;;;;6.20;5.70;;;23.20;99.90;;;;;;5031965;28;20219;-77
2022/08/05 00:03:41;;;;;;;6.67;6.17;;;23.10;99.90;;;;;;5031597;28;20239;-77
2022/08/05 00:06:08;;;;;;;6.43;5.83;;;23.10;99.90;;;;;;5032179;28;20355;-76
2022/08/05 00:08:35;;;;;;;6.47;5.97;;;23.10;99.90;;;;;;5032283;28;20279;-77
2022/08/05 00:11:06;;;;;;;5.43;5.00;;;23.00;99.90;;;;;;5031704;28;20246;-77
2022/08/05 00:13:33;;;;;;;6.70;6.20;;;23.00;99.90;;;;;;5033143;28;20262;-76
2022/08/05 00:16:00;;;;;;;6.50;6.00;;;23.00;99.90;;;;;;5031953;28;20226;-77
2022/08/05 00:18:29;;;;;;;6.57;6.07;;;22.90;99.90;;;;;;5029076;28;20265;-77
2022/08/05 00:20:55;;;;;;;6.50;6.00;;;22.90;99.90;;;;;;5032972;28;20221;-77
2022/08/05 00:23:23;;;;;;;6.57;6.07;;;22.90;99.90;;;;;;5033076;28;20247;-77
2022/08/05 00:25:51;;;;;;;6.20;5.80;;;22.90;99.90;;;;;;5033390;28;20643;-77
2022/08/05 00:28:18;;;;;;;6.20;5.80;;;22.90;99.90;;;;;;5033547;28;20222;-76
2022/08/05 00:30:44;;;;;;;6.13;5.73;;;22.90;99.90;;;;;;5031303;28;20200;-77
2022/08/05 00:33:12;;;;;;;6.00;5.60;;;22.90;99.90;;;;;;5033022;28;20200;-76
2022/08/05 00:35:40;;;;;;;6.30;5.80;;;22.80;99.90;;;;;;5031766;28;20219;-77
2022/08/05 00:38:07;;;;;;;6.50;6.00;;;22.80;99.90;;;;;;5031762;28;20192;-78
2022/08/05 00:40:34;;;;;;;6.20;5.70;;;22.80;99.90;;;;;;5030074;28;20250;-77
2022/08/05 00:43:05;;;;;;;6.50;6.00;;;22.70;99.90;;;;;;5031342;28;20224;-77
2022/08/05 00:45:31;;;;;;;6.17;5.73;;;22.70;99.90;;;;;;5035510;28;20224;-77
2022/08/05 00:47:58;;;;;;;6.40;5.90;;;22.70;99.90;;;;;;5036697;28;20222;-77
2022/08/05 00:50:25;;;;;;;6.20;5.70;;;22.60;99.90;;;;;;5036648;28;20195;-76
2022/08/05 00:52:53;;;;;;;6.10;5.70;;;22.60;99.90;;;;;;5035958;28;20259;-77
2022/08/05 00:55:20;;;;;;;5.80;5.40;;;22.60;99.90;;;;;;5035702;28;20219;-77
2022/08/05 00:57:47;;;;;;;6.60;6.10;;;22.50;99.90;;;;;;5029883;28;20255;-76
2022/08/05 01:00:14;;;;;;;3.63;3.33;;;22.60;99.90;;;;;;5036563;28;20262;-77
2022/08/05 01:02:41;;;;;;;6.10;5.50;;;22.60;99.90;;;;;;5034985;28;20266;-76
2022/08/05 01:05:08;;;;;;;5.93;5.53;;;22.60;99.90;;;;;;5035839;28;20239;-77
2022/08/05 01:07:35;;;;;;;6.70;6.20;;;22.60;99.90;;;;;;5034977;28;20200;-76
2022/08/05 01:10:06;;;;;;;6.07;5.60;;;22.70;99.90;;;;;;5035757;28;20188;-78
2022/08/05 01:12:33;;;;;;;6.20;5.70;;;22.70;99.90;;;;;;5035116;28;20261;-76
2022/08/05 01:15:04;;;;;;;5.90;5.50;;;22.60;99.90;;;;;;5035664;28;20281;-78
2022/08/05 01:17:37;;;;;;;6.40;5.90;;;22.60;99.90;;;;;;5030721;28;20196;-76
2022/08/05 01:20:15;;;;;;;6.13;5.70;;;22.50;99.90;;;;;;5034334;28;20208;-76
2022/08/05 01:22:59;;;;;;;6.27;5.77;;;22.60;99.90;;;;;;5035857;28;20219;-76
2022/08/05 01:25:43;;;;;;;5.90;5.50;;;22.60;99.90;;;;;;5063977;22;20222;-76
2022/08/05 01:28:20;;;;;;;5.87;5.47;;;22.50;99.90;;;;;;5063790;28;20285;-76
2022/08/05 01:30:53;;;;;;;5.70;5.30;;;22.50;99.90;;;;;;5073722;28;20197;-76
2022/08/05 01:33:22;;;;;;;6.87;6.27;;;22.40;99.90;;;;;;5066505;28;20232;-76
2022/08/05 01:35:50;;;;;;;6.90;6.20;;;22.40;99.90;;;;;;5063974;28;20284;-76
2022/08/05 01:38:18;;;;;;;6.93;6.33;;;22.40;99.90;;;;;;5053546;28;20199;-76
2022/08/05 01:40:47;;;;;;;6.97;6.37;;;22.30;99.90;;;;;;5046984;28;20664;-76
2022/08/05 01:43:16;;;;;;;6.53;6.03;;;22.30;99.90;;;;;;5049035;28;20211;-75
2022/08/05 01:45:43;;;;;;;6.40;5.90;;;22.20;99.90;;;;;;5049675;28;20723;-76
2022/08/05 01:48:11;;;;;;;6.33;5.83;;;22.20;99.90;;;;;;5045348;28;20624;-76
2022/08/05 01:50:40;;;;;;;6.30;5.70;;;22.10;99.90;;;;;;5043923;28;20196;-76
2022/08/05 01:53:12;;;;;;;6.30;5.80;;;22.10;99.90;;;;;;5045250;28;20273;-76
2022/08/05 01:55:40;;;;;;;5.60;5.20;;;22.00;99.90;;;;;;5043782;28;20250;-76
2022/08/05 01:58:10;;;;;;;5.80;5.40;;;22.00;99.90;;;;;;5048361;28;20269;-76
2022/08/05 02:00:43;;;;;;;6.40;5.80;;;22.00;99.90;;;;;;5049093;28;20261;-76
2022/08/05 02:03:18;;;;;;;5.80;5.30;;;22.10;99.90;;;;;;5043580;28;20211;-76
2022/08/05 02:05:46;;;;;;;5.80;5.37;;;22.00;99.90;;;;;;5046902;28;20270;-76
2022/08/05 02:08:13;;;;;;;6.40;5.90;;;22.10;99.90;;;;;;5045375;28;20199;-76
2022/08/05 02:10:44;;;;;;;5.80;5.40;;;22.00;99.90;;;;;;5044643;28;20203;-76
2022/08/05 02:13:15;;;;;;;6.30;5.70;;;22.00;99.90;;;;;;5041889;28;20718;-75
2022/08/05 02:15:45;;;;;;;6.13;5.67;;;22.10;99.90;;;;;;5044918;28;20215;-76
2022/08/05 02:18:18;;;;;;;6.47;5.97;;;22.10;99.90;;;;;;5047422;28;20188;-76
2022/08/05 02:20:49;;;;;;;5.70;5.30;;;22.10;99.90;;;;;;5049488;28;20199;-76
2022/08/05 02:23:22;;;;;;;5.70;5.30;;;22.00;99.90;;;;;;5045068;28;20215;-76
2022/08/05 02:25:51;;;;;;;6.17;5.77;;;22.00;99.90;;;;;;5043893;28;20223;-76
2022/08/05 02:28:24;;;;;;;5.90;5.50;;;22.00;99.90;;;;;;5044479;28;20199;-76
2022/08/05 02:30:58;;;;;;;6.63;6.13;;;21.90;99.90;;;;;;5048274;28;20203;-76
2022/08/05 02:33:26;;;;;;;5.87;5.30;;;21.90;99.90;;;;;;5043513;28;20180;-76
2022/08/05 02:35:56;;;;;;;5.87;5.37;;;21.90;99.90;;;;;;5042918;28;20216;-76
2022/08/05 02:38:25;;;;;;;5.60;5.20;;;21.90;99.90;;;;;;5047177;28;20665;-76
2022/08/05 02:40:54;;;;;;;5.70;5.30;;;22.00;99.90;;;;;;5047813;28;20245;-76
2022/08/05 02:43:22;;;;;;;5.87;5.40;;;22.00;99.90;;;;;;5045680;28;20703;-76
2022/08/05 02:45:50;;;;;;;5.57;5.23;;;22.00;99.90;;;;;;5042686;28;20276;-76
2022/08/05 02:48:19;;;;;;;6.00;5.60;;;22.00;99.90;;;;;;5044093;28;20241;-77
2022/08/05 02:50:49;;;;;;;5.93;5.53;;;22.00;99.90;;;;;;5046348;28;20199;-76
2022/08/05 02:53:17;;;;;;;6.20;5.70;;;22.00;99.90;;;;;;5042670;28;20206;-76
2022/08/05 02:55:45;;;;;;;6.30;5.80;;;22.00;99.90;;;;;;5050318;28;20211;-75
2022/08/05 02:58:15;;;;;;;6.03;5.63;;;22.00;99.90;;;;;;5053797;28;20196;-75
2022/08/05 03:00:43;;;;;;;6.43;6.03;;;22.00;99.90;;;;;;5047981;28;20257;-75
2022/08/05 03:03:13;;;;;;;6.30;5.80;;;22.00;99.90;;;;;;5048377;28;20277;-75
2022/08/05 03:05:41;;;;;;;6.50;6.00;;;21.90;99.90;;;;;;5049889;28;20219;-75
2022/08/05 03:08:10;;;;;;;5.80;5.40;;;21.90;99.90;;;;;;5048730;28;20191;-75
2022/08/05 03:10:37;;;;;;;6.33;5.83;;;21.90;99.90;;;;;;5046761;28;20286;-74
2022/08/05 03:13:12;;;;;;;6.23;5.73;;;21.80;99.90;;;;;;5048821;28;20195;-74
2022/08/05 03:15:41;;;;;;;6.70;6.10;;;21.80;99.90;;;;;;5046713;28;20211;-75
2022/08/05 03:18:08;;;;;;;6.93;6.37;;;21.80;99.90;;;;;;5047952;28;20677;-76
2022/08/05 03:20:35;;;;;;;5.90;5.50;;;21.70;99.90;;;;;;5044916;28;20264;-75
2022/08/05 03:23:05;;;;;;;5.93;5.50;;;21.70;99.90;;;;;;5050831;28;20195;-77
2022/08/05 03:25:33;;;;;;;5.97;5.57;;;21.70;99.90;;;;;;5045740;28;20219;-75
2022/08/05 03:28:01;;;;;;;5.97;5.57;;;21.60;99.90;;;;;;5041903;28;20203;-76
2022/08/05 03:30:31;;;;;;;6.30;5.80;;;21.70;99.90;;;;;;5042938;28;20608;-76
2022/08/05 03:32:58;;;;;;;6.53;6.00;;;21.60;99.90;;;;;;5043369;28;20202;-76
2022/08/05 03:35:25;;;;;;;6.20;5.80;;;21.60;99.90;;;;;;5046238;28;20220;-76
2022/08/05 03:37:53;;;;;;;7.50;6.90;;;21.60;99.90;;;;;;5047990;28;20202;-75
2022/08/05 03:40:22;;;;;;;6.90;6.40;;;21.60;99.90;;;;;;5044996;28;20237;-75
2022/08/05 03:42:48;;;;;;;7.97;7.27;;;21.50;99.90;;;;;;5046149;28;20206;-76
2022/08/05 03:45:15;;;;;;;7.90;7.20;;;21.50;99.90;;;;;;5043695;28;20230;-76
2022/08/05 03:47:42;;;;;;;8.33;7.53;;;21.50;99.90;;;;;;5043261;28;20282;-75
2022/08/05 03:50:09;;;;;;;8.30;7.50;;;21.50;99.90;;;;;;5043014;28;20187;-75
2022/08/05 03:52:46;;;;;;;8.50;7.77;;;21.40;99.90;;;;;;5043115;28;20728;-75
2022/08/05 03:55:18;;;;;;;8.50;7.70;;;21.40;99.90;;;;;;5049460;28;20219;-75
2022/08/05 03:57:49;;;;;;;7.80;7.20;;;21.40;99.90;;;;;;5049162;28;20210;-76
2022/08/05 04:00:17;;;;;;;8.03;7.33;;;21.40;99.90;;;;;;5042403;28;20196;-76
2022/08/05 04:02:46;;;;;;;8.03;7.23;;;21.40;99.90;;;;;;5043324;28;20608;-75
2022/08/05 04:05:14;;;;;;;8.07;7.47;;;21.40;99.90;;;;;;5045804;28;20230;-76
2022/08/05 04:07:42;;;;;;;8.40;7.60;;;21.40;99.90;;;;;;5041727;28;20196;-76
2022/08/05 04:10:09;;;;;;;8.30;7.60;;;21.40;99.90;;;;;;5047920;28;20229;-76
2022/08/05 04:12:36;;;;;;;8.30;7.60;;;21.40;99.90;;;;;;5046477;28;20260;-76
2022/08/05 04:15:05;;;;;;;8.00;7.30;;;21.40;99.90;;;;;;5042581;28;20256;-75
2022/08/05 04:17:34;;;;;;;7.93;7.33;;;21.40;99.90;;;;;;5042989;28;20203;-75
2022/08/05 04:20:00;;;;;;;7.13;6.60;;;21.40;99.90;;;;;;5044156;28;20247;-76
2022/08/05 04:22:27;;;;;;;7.30;6.70;;;21.40;99.90;;;;;;5049259;28;20191;-75
2022/08/05 04:24:54;;;;;;;6.77;6.20;;;21.40;99.90;;;;;;5057350;28;20215;-75
2022/08/05 04:27:22;;;;;;;7.30;6.70;;;21.40;99.90;;;;;;5046939;28;20199;-75
2022/08/05 04:29:49;;;;;;;7.53;6.93;;;21.40;99.90;;;;;;5046476;28;20569;-75
2022/08/05 04:32:17;;;;;;;7.33;6.83;;;21.40;99.90;;;;;;5048012;28;20202;-75
2022/08/05 04:34:43;;;;;;;7.70;7.10;;;21.40;99.90;;;;;;5046317;28;20362;-75
2022/08/05 04:37:10;;;;;;;7.53;6.93;;;21.40;99.90;;;;;;5042162;28;20245;-76
2022/08/05 04:39:37;;;;;;;7.70;7.10;;;21.40;99.90;;;;;;5046463;28;20200;-76
2022/08/05 04:42:05;;;;;;;7.43;6.83;;;21.40;99.90;;;;;;5050206;28;20625;-75
2022/08/05 04:44:31;;;;;;;7.67;7.07;;;21.40;99.90;;;;;;5049200;28;20222;-76
2022/08/05 04:46:58;;;;;;;7.20;6.70;;;21.40;99.90;;;;;;5046478;28;20227;-76
2022/08/05 04:49:27;;;;;;;7.70;7.10;;;21.40;99.90;;;;;;5046413;28;20196;-76
2022/08/05 04:51:53;;;;;;;7.13;6.53;;;21.50;99.90;;;;;;5053514;28;20195;-77
2022/08/05 04:54:21;;;;;;;6.87;6.37;;;21.50;99.90;;;;;;5049467;28;20192;-76
2022/08/05 04:56:47;;;;;;;6.90;6.40;;;21.50;99.90;;;;;;5050821;28;20234;-76
2022/08/05 04:59:15;;;;;;;7.40;6.90;;;21.50;99.90;;;;;;5046444;28;20250;-76
2022/08/05 05:01:42;;;;;;;7.47;6.87;;;21.50;99.90;;;;;;5042140;28;20200;-76
2022/08/05 05:04:08;;;;;;;7.20;6.60;;;21.40;99.90;;;;;;5050830;28;20211;-76
2022/08/05 05:06:37;;;;;;;7.53;6.93;;;21.40;99.90;;;;;;5041287;28;20277;-76
2022/08/05 05:09:04;;;;;;;7.13;6.63;;;21.40;99.90;;;;;;5051257;28;20199;-76
2022/08/05 05:11:30;;;;;;;7.77;7.17;;;21.40;99.90;;;;;;5046236;28;20196;-77
2022/08/05 05:13:57;;;;;;;7.67;7.10;;;21.40;99.90;;;;;;5045031;28;20279;-77
2022/08/05 05:16:24;;;;;;;7.53;7.03;;;21.30;99.90;;;;;;5047651;28;20216;-76
2022/08/05 05:18:51;;;;;;;7.30;6.77;;;21.40;99.90;;;;;;5050704;28;20207;-76
2022/08/05 05:21:17;;;;;;;7.23;6.60;;;21.50;99.90;;;;;;5045844;28;20590;-76
2022/08/05 05:23:45;;;;;;;8.17;7.37;;;21.60;99.90;;;;;;5050112;28;20199;-76
2022/08/05 05:26:12;;;;;;;7.27;6.73;;;21.60;99.90;;;;;;5045975;28;20715;-76
2022/08/05 05:28:39;;;;;;;7.43;6.83;;;21.70;99.90;;;;;;5045909;28;20203;-76
2022/08/05 05:31:06;;;;;;;7.03;6.53;;;21.80;99.90;;;;;;5045618;28;20191;-77
2022/08/05 05:33:33;;;;;;;7.23;6.73;;;22.00;99.90;;;;;;5053866;28;20261;-76
2022/08/05 05:35:59;;;;;;;6.60;6.10;;;22.20;99.90;;;;;;5049001;28;20215;-77
2022/08/05 05:38:26;;;;;;;6.00;5.50;;;22.50;99.90;;;;;;5055377;28;20278;-77
2022/08/05 05:40:55;;;;;;;7.10;6.60;;;22.80;99.90;;;;;;5053641;28;20253;-76
2022/08/05 05:43:22;;;;;;;7.60;7.10;;;23.10;99.90;;;;;;5048401;28;20210;-76
2022/08/05 05:45:49;;;;;;;8.40;7.70;;;23.30;99.90;;;;;;5050532;28;20575;-76
2022/08/05 05:48:16;;;;;;;7.90;7.20;;;23.40;99.90;;;;;;5049629;28;20191;-77
2022/08/05 05:50:42;;;;;;;8.00;7.47;;;23.60;99.90;;;;;;5050545;28;20202;-77
2022/08/05 05:53:10;;;;;;;7.07;6.57;;;24.00;99.90;;;;;;5045797;28;20249;-75
2022/08/05 05:55:37;;;;;;;6.37;5.87;;;24.30;99.90;;;;;;5051649;28;20215;-77
2022/08/05 05:58:05;;;;;;;5.93;5.43;;;24.50;99.90;;;;;;5046098;28;20188;-77
2022/08/05 06:00:32;;;;;;;5.60;5.10;;;24.60;99.90;;;;;;5046628;28;20188;-77
2022/08/05 06:03:00;;;;;;;6.80;5.37;;;24.70;99.90;;;;;;5050555;28;20691;-77
2022/08/05 06:05:27;;;;;;;6.20;5.60;;;24.80;99.90;;;;;;5046607;28;20268;-76
2022/08/05 06:07:53;;;;;;;5.40;4.90;;;24.80;99.90;;;;;;5045474;28;20207;-77
2022/08/05 06:10:20;;;;;;;6.07;5.57;;;24.80;99.90;;;;;;5045054;28;20254;-77
2022/08/05 06:12:47;;;;;;;7.13;6.63;;;24.90;99.90;;;;;;5050371;28;20191;-77
2022/08/05 06:15:15;;;;;;;5.73;5.23;;;25.00;99.90;;;;;;5045983;28;20273;-77
2022/08/05 06:17:42;;;;;;;5.67;5.27;;;25.10;99.90;;;;;;5045698;28;20249;-77
2022/08/05 06:20:09;;;;;;;7.10;6.53;;;25.20;99.90;;;;;;5045326;28;20253;-77
2022/08/05 06:22:36;;;;;;;5.30;4.90;;;25.30;99.90;;;;;;5045233;28;20192;-77
2022/08/05 06:25:06;;;;;;;7.43;6.83;;;25.40;99.90;;;;;;5048275;28;20310;-77
2022/08/05 06:27:33;;;;;;;7.60;7.00;;;25.50;99.90;;;;;;5047497;28;20195;-77
2022/08/05 06:30:00;;;;;;;5.97;5.13;;;25.70;99.90;;;;;;5044205;28;20252;-77
2022/08/05 06:32:28;;;;;;;7.23;5.70;;;25.90;99.90;;;;;;5048016;28;20260;-77
2022/08/05 06:34:56;;;;;;;7.13;6.53;;;26.00;99.90;;;;;;5047632;28;20206;-77
2022/08/05 06:37:25;;;;;;;7.30;6.60;;;26.20;99.90;;;;;;5045445;28;20270;-77
2022/08/05 06:39:51;;;;;;;5.70;5.00;;;26.30;99.90;;;;;;5045523;28;20192;-77
2022/08/05 06:42:18;;;;;;;8.30;6.50;;;26.40;99.90;;;;;;5052376;28;20195;-77
2022/08/05 06:44:45;;;;;;;3.97;2.97;;;26.50;99.90;;;;;;5049106;28;20215;-77
2022/08/05 06:47:12;;;;;;;6.80;3.57;;;26.80;99.90;;;;;;5044459;28;20203;-77
2022/08/05 06:49:40;;;;;;;5.00;4.50;;;27.00;99.90;;;;;;5045273;28;20485;-77
2022/08/05 06:52:07;;;;;;;5.50;4.90;;;27.20;99.90;;;;;;5044402;28;20199;-77
2022/08/05 06:54:33;;;;;;;7.63;6.93;;;27.30;99.90;;;;;;5046786;28;20634;-77
2022/08/05 06:57:00;;;;;;;7.03;5.67;;;27.50;99.90;;;;;;5049874;28;20219;-77
2022/08/05 06:59:27;;;;;;;7.83;7.20;;;27.50;99.90;;;;;;5046757;28;20195;-77
2022/08/05 07:01:54;;;;;;;6.40;5.70;;;27.60;99.90;;;;;;5048873;28;20195;-77
2022/08/05 07:04:20;;;;;;;6.93;6.33;;;27.80;99.90;;;;;;5049945;28;20242;-77
2022/08/05 07:06:48;;;;;;;8.20;7.50;;;28.20;99.90;;;;;;5044896;28;20748;-77
2022/08/05 07:09:15;;;;;;;5.80;5.30;;;28.50;99.90;;;;;;5045937;28;20187;-77
2022/08/05 07:11:42;;;;;;;7.43;6.17;;;29.00;99.90;;;;;;5044840;28;20188;-77
2022/08/05 07:17:04;;;;;;;7.93;7.13;;;29.50;99.90;;;;;;5007100;28;20216;-77
2022/08/05 07:19:31;;;;;;;7.73;6.70;;;29.70;99.90;;;;;;5051531;28;20203;-78
2022/08/05 07:22:00;;;;;;;8.30;7.43;;;30.00;99.90;;;;;;5051614;28;20572;-77
2022/08/05 07:24:26;;;;;;;7.53;6.93;;;29.90;99.90;;;;;;5046799;28;20618;-77
2022/08/05 07:26:53;;;;;;;7.90;7.20;;;30.10;99.90;;;;;;5085772;22;20231;-76
2022/08/05 07:29:20;;;;;;;6.27;5.67;;;30.50;99.90;;;;;;5070927;28;20199;-76
2022/08/05 07:31:47;;;;;;;5.47;4.80;;;30.80;99.90;;;;;;5072154;28;20248;-76
2022/08/05 07:34:14;;;;;;;5.00;4.57;;;30.90;99.90;;;;;;5070641;28;20252;-76
2022/08/05 07:36:41;;;;;;;5.60;5.10;;;31.00;99.90;;;;;;5072660;28;20219;-76
2022/08/05 07:39:10;;;;;;;5.27;4.40;;;31.30;99.90;;;;;;5065807;28;20278;-76
2022/08/05 07:41:37;;;;;;;6.60;6.10;;;31.30;99.80;;;;;;5063745;28;20252;-76
2022/08/05 07:44:05;;;;;;;7.17;6.23;;;31.40;98.90;;;;;;5068197;28;20202;-77
2022/08/05 07:46:33;;;;;;;6.00;5.60;;;31.50;98.70;;;;;;5072069;28;20210;-76
2022/08/05 07:49:02;;;;;;;4.77;4.23;;;31.60;98.60;;;;;;5067954;28;20203;-76
2022/08/05 07:51:29;;;;;;;4.23;3.83;;;31.80;98.60;;;;;;5069235;28;20279;-76
2022/08/05 07:53:57;;;;;;;6.03;5.53;;;31.80;98.20;;;;;;5059650;28;20195;-75
2022/08/05 07:56:27;;;;;;;4.53;3.70;;;32.00;97.50;;;;;;5076265;28;20301;-76
2022/08/05 07:58:54;;;;;;;3.83;3.40;;;32.20;96.60;;;;;;5075117;28;20204;-76
2022/08/05 08:01:23;;;;;;;4.50;3.97;;;32.10;96.90;;;;;;5067793;28;20705;-76
2022/08/05 08:03:52;;;;;;;3.53;2.63;;;32.20;97.00;;;;;;5072206;28;20195;-76
2022/08/05 08:06:19;;;;;;;2.93;2.73;;;32.30;97.10;;;;;;5072486;28;20233;-76
2022/08/05 08:08:46;;;;;;;3.10;2.50;;;32.50;95.90;;;;;;5071473;28;20651;-76
2022/08/05 08:11:14;;;;;;;3.50;2.60;;;32.40;95.20;;;;;;5070440;28;20255;-76
2022/08/05 08:13:42;;;;;;;4.72;4.32;;;32.50;94.60;;;;;;5069656;28;20194;-76
2022/08/05 08:16:09;;;;;;;5.82;5.32;;;32.60;94.50;;;;;;5065369;28;20218;-76
2022/08/05 08:18:36;;;;;;;6.23;5.73;;;32.60;94.80;;;;;;5070046;28;20490;-77
2022/08/05 08:21:02;;;;;;;5.55;5.15;;;32.70;94.30;;;;;;5067791;28;20199;-76
2022/08/05 08:23:29;;;;;;;4.97;2.90;;;32.80;93.60;;;;;;5067242;28;20667;-76
2022/08/05 08:25:56;;;;;;;5.15;4.75;;;33.00;93.10;;;;;;5070261;28;20222;-76
2022/08/05 08:28:23;;;;;;;5.28;2.88;;;33.00;94.50;;;;;;5074185;28;20237;-76
2022/08/05 08:30:51;;;;;;;4.90;3.30;;;33.10;92.90;;;;;;5068576;28;20203;-76
2022/08/05 08:33:17;;;;;;;5.85;5.40;;;33.10;92.90;;;;;;5071738;28;20198;-76
2022/08/05 08:35:44;;;;;;;3.22;2.80;;;33.20;93.40;;;;;;5071975;28;20218;-76
2022/08/05 08:38:12;;;;;;;3.63;3.30;;;33.20;93.40;;;;;;5074110;28;20568;-76
2022/08/05 08:40:39;;;;;;;4.07;3.78;;;33.30;92.20;;;;;;5067747;28;20234;-76
2022/08/05 08:43:07;;;;;;;3.67;3.00;;;33.40;93.30;;;;;;5067963;28;20198;-76
2022/08/05 08:45:37;;;;;;;3.35;2.80;;;33.50;92.30;;;;;;5068628;28;20242;-76
2022/08/05 08:48:06;;;;;;;4.25;3.08;;;33.40;92.10;;;;;;5062459;28;20199;-76
2022/08/05 08:50:33;;;;;;;2.72;2.53;;;33.30;92.80;;;;;;5069534;28;20706;-76
2022/08/05 08:53:04;;;;;;;4.60;3.00;;;33.50;93.40;;;;;;5070329;28;20198;-76
2022/08/05 08:55:32;;;;;;;4.93;4.30;;;33.40;93.00;;;;;;5063648;28;20229;-76
2022/08/05 08:58:00;;;;;;;3.60;3.30;;;33.10;93.10;;;;;;5068747;28;20593;-76
2022/08/05 09:00:27;;;;;;;5.93;5.53;;;33.60;92.10;;;;;;5070349;28;20606;-76
2022/08/05 09:02:54;;;;;;;4.90;3.15;;;33.30;92.50;;;;;;5071044;28;20612;-76
2022/08/05 09:05:23;;;;;;;3.17;2.67;;;32.70;92.10;;;;;;5066780;28;20183;-77
2022/08/05 09:07:51;;;;;;;5.00;4.65;;;32.00;92.40;;;;;;5072430;28;20253;-76
2022/08/05 09:10:18;;;;;;;2.75;2.55;;;31.90;92.10;;;;;;5070974;28;20259;-77
2022/08/05 09:12:45;;;;;;;3.10;2.30;;;31.70;91.70;;;;;;5069917;28;20224;-76
2022/08/05 09:15:12;;;;;;;2.63;2.25;;;32.10;92.90;;;;;;5068189;28;20277;-76
2022/08/05 09:17:40;;;;;;;3.83;2.70;;;32.70;91.00;;;;;;5068590;28;20195;-77
2022/08/05 09:20:08;;;;;;;2.58;2.38;;;32.40;90.90;;;;;;5073179;28;20256;-76
2022/08/05 09:23:04;;;;;;;3.25;2.28;;;32.20;90.70;;;;;;5073511;28;20252;-76
2022/08/05 09:25:32;;;;;;;2.50;2.30;;;31.80;91.20;;;;;;5069210;28;20628;-76
2022/08/05 09:28:12;;;;;;;4.57;4.17;;;31.20;91.60;;;;;;5067267;28;20194;-76
2022/08/05 09:30:43;;;;;;;4.97;4.60;;;31.50;92.30;;;;;;5066826;28;20190;-76
2022/08/05 09:33:09;;;;;;;3.03;2.73;;;31.90;92.20;;;;;;5065070;28;20203;-76
2022/08/05 09:35:36;;;;;;;2.72;2.28;;;32.30;91.30;;;;;;5068777;28;20268;-76
2022/08/05 09:38:07;;;;;;;2.65;2.40;;;32.70;90.40;;;;;;5073076;28;20621;-79
2022/08/05 09:40:36;;;;;;;2.63;2.42;;;33.00;89.80;;;;;;5069265;28;20198;-77
2022/08/05 09:43:06;;;;;;;2.70;2.50;;;32.80;90.00;;;;;;5066524;28;20210;-76
2022/08/05 09:45:38;;;;;;;2.85;2.60;;;33.00;91.10;;;;;;5072056;28;20206;-76
2022/08/05 09:48:19;;;;;;;4.20;2.47;;;33.00;91.10;;;;;;5064920;28;20570;-77
2022/08/05 09:50:49;;;;;;;3.17;2.90;;;32.30;90.40;;;;;;5070308;28;20194;-77
2022/08/05 09:53:18;;;;;;;5.68;5.18;;;32.50;92.00;;;;;;5071507;28;20286;-76
2022/08/05 09:55:45;;;;;;;5.90;5.43;;;32.50;91.30;;;;;;5064407;28;20255;-77
2022/08/05 09:58:14;;;;;;;5.47;5.00;;;32.60;92.40;;;;;;5071080;28;20192;-76
2022/08/05 10:00:51;;;;;;;4.95;4.63;;;33.10;92.00;;;;;;5056403;28;20188;-76
2022/08/05 10:03:18;;;;;;;5.10;4.70;;;33.20;91.60;;;;;;5066917;28;20236;-76
2022/08/05 10:05:44;;;;;;;6.63;3.53;;;33.40;90.10;;;;;;5070752;28;20202;-76
2022/08/05 10:08:11;;;;;;;3.20;2.80;;;33.00;89.40;;;;;;5070161;28;20570;-77
2022/08/05 10:10:47;;;;;;;4.40;4.05;;;33.10;89.60;;;;;;5061813;28;20290;-79
2022/08/05 10:13:28;;;;;;;3.28;2.58;;;33.50;90.80;;;;;;5066279;28;20297;-77
2022/08/05 10:15:57;;;;;;;5.18;4.70;;;33.80;90.00;;;;;;5064711;28;20695;-79
2022/08/05 10:18:26;;;;;;;5.50;5.10;;;33.50;88.70;;;;;;5064942;28;20644;-78
2022/08/05 10:20:55;;;;;;;4.07;3.78;;;33.20;90.10;;;;;;5068775;28;20199;-77
2022/08/05 10:23:24;;;;;;;6.07;5.03;;;32.80;90.80;;;;;;5064587;28;20278;-76
2022/08/05 10:25:54;;;;;;;5.30;4.90;;;32.70;89.80;;;;;;5069455;28;20601;-76
2022/08/05 10:28:21;;;;;;;4.27;2.87;;;32.20;90.40;;;;;;5061936;28;20194;-77
2022/08/05 10:30:49;;;;;;;5.40;4.88;;;31.80;91.10;;;;;;5064200;28;20290;-76
2022/08/05 10:33:16;;;;;;;3.20;2.90;;;31.70;90.70;;;;;;5070128;28;20259;-77
2022/08/05 10:35:43;;;;;;;3.37;2.90;;;32.00;91.30;;;;;;5069066;28;20218;-77
2022/08/05 10:38:10;;;;;;;3.63;3.20;;;32.10;90.80;;;;;;5064534;28;20618;-76
2022/08/05 10:40:43;;;;;;;5.80;5.37;;;31.90;90.50;;;;;;5064416;28;20198;-76
2022/08/05 10:43:20;;;;;;;5.00;4.60;;;31.90;90.50;;;;;;5063963;28;20226;-76
2022/08/05 10:45:57;;;;;;;4.43;3.80;;;31.90;90.80;;;;;;5068600;28;20617;-76
2022/08/05 10:48:45;;;;;;;3.87;2.67;;;31.80;89.70;;;;;;5068051;28;20194;-76
2022/08/05 10:51:14;;;;;;;2.60;2.40;;;31.60;90.70;;;;;;5058195;28;20256;-77
2022/08/05 10:53:43;;;;;;;5.77;5.37;;;31.70;90.20;;;;;;5066410;28;20324;-77
2022/08/05 10:56:13;;;;;;;2.67;2.47;;;31.60;91.10;;;;;;5061283;28;20215;-75
2022/08/05 10:59:04;;;;;;;6.03;5.43;;;31.90;90.20;;;;;;5068620;28;20191;-77
2022/08/05 11:01:32;;;;;;;5.50;5.10;;;31.80;90.90;;;;;;5063054;28;20218;-76
2022/08/05 11:04:08;;;;;;;5.50;5.10;;;32.00;90.30;;;;;;5069319;28;20190;-76
2022/08/05 11:07:10;;;;;;;5.37;5.07;;;32.00;90.10;;;;;;5072734;28;20230;-80
2022/08/05 11:09:39;;;;;;;6.10;5.60;;;32.10;90.30;;;;;;5062089;28;20194;-76
2022/08/05 11:12:41;;;;;;;5.73;5.23;;;32.00;90.30;;;;;;5066249;28;20221;-76
2022/08/05 11:15:09;;;;;;;6.00;5.53;;;31.90;90.90;;;;;;5065285;28;20563;-76
2022/08/05 11:17:37;;;;;;;5.90;5.50;;;32.00;90.30;;;;;;5066047;28;20240;-76
2022/08/05 11:20:06;;;;;;;5.70;5.30;;;32.00;89.00;;;;;;5068882;28;20199;-76
2022/08/05 11:22:43;;;;;;;5.90;5.50;;;32.10;89.60;;;;;;5066990;28;20248;-76
2022/08/05 11:25:30;;;;;;;5.20;4.90;;;32.10;90.20;;;;;;5063209;28;20191;-77
2022/08/05 11:27:57;;;;;;;5.50;5.10;;;32.10;90.00;;;;;;5069900;28;20194;-76
2022/08/05 11:30:24;;;;;;;5.80;5.33;;;32.00;90.00;;;;;;5066619;28;20256;-76
2022/08/05 11:32:51;;;;;;;5.90;5.50;;;31.90;87.90;;;;;;5065344;28;20285;-77
2022/08/05 11:35:52;;;;;;;5.70;5.30;;;31.60;90.30;;;;;;5066244;28;20195;-77
2022/08/05 11:38:53;;;;;;;5.73;5.23;;;31.30;90.30;;;;;;5058888;28;20251;-77
2022/08/05 11:41:22;;;;;;;6.43;5.93;;;31.30;90.90;;;;;;5058425;28;20182;-76
2022/08/05 11:43:57;;;;;;;6.00;5.50;;;31.20;90.30;;;;;;5063949;28;20199;-77
2022/08/05 11:46:28;;;;;;;6.00;5.50;;;31.20;90.00;;;;;;5066402;28;20767;-76
2022/08/05 11:48:56;;;;;;;5.57;5.17;;;31.00;89.80;;;;;;5065959;28;20202;-76
2022/08/05 11:51:24;;;;;;;5.80;5.40;;;31.10;90.10;;;;;;5070315;28;20186;-76
2022/08/05 11:53:53;;;;;;;5.60;5.30;;;31.20;90.00;;;;;;5068806;28;20187;-77
2022/08/05 11:56:20;;;;;;;2.90;2.60;;;31.20;90.50;;;;;;5066903;28;20218;-77
2022/08/05 11:58:48;;;;;;;2.80;2.60;;;31.20;91.00;;;;;;5065296;28;20195;-77
2022/08/05 12:01:16;;;;;;;3.23;2.50;;;31.30;90.50;;;;;;5065964;28;20195;-77
2022/08/05 12:03:45;;;;;;;3.27;2.93;;;31.20;90.80;;;;;;5063787;28;20199;-77
2022/08/05 12:06:13;;;;;;;2.87;2.60;;;31.10;91.00;;;;;;5061506;28;20666;-77
2022/08/05 12:08:42;;;;;;;5.90;5.40;;;30.90;90.50;;;;;;5060717;28;20206;-77
2022/08/05 12:11:11;;;;;;;6.30;5.90;;;30.90;90.60;;;;;;5061995;28;20293;-77
2022/08/05 12:13:38;;;;;;;5.90;5.37;;;31.00;90.60;;;;;;5067428;28;20182;-77
2022/08/05 12:16:08;;;;;;;5.40;5.00;;;31.00;90.70;;;;;;5067069;28;20271;-77
2022/08/05 12:18:36;;;;;;;5.60;5.13;;;30.90;90.70;;;;;;5070869;28;20195;-77
2022/08/05 12:21:11;;;;;;;7.20;6.50;;;30.90;91.10;;;;;;5072213;28;20268;-77
2022/08/05 12:23:37;;;;;;;6.00;5.50;;;30.90;90.70;;;;;;5067295;28;20236;-77
2022/08/05 12:26:04;;;;;;;5.97;5.47;;;30.90;90.70;;;;;;5065191;28;20283;-77
2022/08/05 12:28:34;;;;;;;6.10;5.70;;;30.80;90.90;;;;;;5065497;28;20252;-78
2022/08/05 12:31:01;;;;;;;6.33;5.77;;;30.80;90.80;;;;;;5071811;28;20207;-77
2022/08/05 12:33:29;;;;;;;6.83;5.30;;;30.80;91.20;;;;;;5067222;28;20191;-77
2022/08/05 12:35:56;;;;;;;6.13;5.30;;;30.80;90.60;;;;;;5067328;28;20722;-77
2022/08/05 12:38:23;;;;;;;2.80;2.57;;;30.70;91.10;;;;;;5052656;28;20253;-76
2022/08/05 12:40:52;;;;;;;3.97;2.83;;;30.80;91.20;;;;;;5051045;28;20207;-77
2022/08/05 12:43:19;;;;;;;4.80;4.40;;;30.80;90.60;;;;;;5064265;28;20279;-77
2022/08/05 12:45:55;;;;;;;2.60;2.40;;;30.90;91.40;;;;;;5066245;28;20792;-77
2022/08/05 12:48:23;;;;;;;2.83;2.53;;;30.90;91.40;;;;;;5072820;28;20186;-77
2022/08/05 12:51:09;;;;;;;3.20;2.90;;;30.90;91.20;;;;;;5064652;28;20195;-76
2022/08/05 12:53:40;;;;;;;3.13;2.70;;;30.90;91.00;;;;;;5069962;28;20203;-79
2022/08/05 12:56:21;;;;;;;2.97;2.67;;;30.90;91.20;;;;;;5069797;28;20642;-77
2022/08/05 12:59:13;;;;;;;2.87;2.60;;;30.80;91.00;;;;;;5070224;28;20199;-76
2022/08/05 13:01:42;;;;;;;4.63;2.97;;;30.80;90.60;;;;;;5067679;28;20194;-78